sensor_id;sensor_type;location;lat;lon;timestamp;P1;durP1;ratioP1;P2;durP2;ratioP2
5121;SDS011;2563;52.242;7.956;2023-04-24T00:02:22;4.50;;;1.10;;
5121;SDS011;2563;52.242;7.956;2023-04-24T00:04:47;3.50;;;1.40;;
5121;SDS011;2563;52.242;7.956;2023-04-24T00:07:14;2.43;;;1.30;;
5121;SDS011;2563;52.242;7.956;2023-04-24T00:09:42;2.30;;;1.27;;
5121;SDS011;2563;52.242;7.956;2023-04-24T00:12:08;2.57;;;1.40;;
5121;SDS011;2563;52.242;7.956;2023-04-24T00:14:34;2.63;;;1.30;;
5121;SDS011;2563;52.242;7.956;2023-04-24T00:17:00;2.53;;;1.23;;
5121;SDS011;2563;52.242;7.956;2023-04-24T00:19:26;3.73;;;1.57;;
5121;SDS011;2563;52.242;7.956;2023-04-24T00:21:51;2.50;;;1.23;;
5121;SDS011;2563;52.242;7.956;2023-04-24T00:24:17;2.73;;;1.60;;
5121;SDS011;2563;52.242;7.956;2023-04-24T00:26:43;3.20;;;1.23;;
5121;SDS011;2563;52.242;7.956;2023-04-24T00:29:09;3.00;;;1.50;;
5121;SDS011;2563;52.242;7.956;2023-04-24T00:31:35;2.57;;;1.53;;
5121;SDS011;2563;52.242;7.956;2023-04-24T00:34:03;4.00;;;1.73;;
5121;SDS011;2563;52.242;7.956;2023-04-24T00:36:29;3.90;;;1.60;;
5121;SDS011;2563;52.242;7.956;2023-04-24T00:38:55;2.90;;;1.60;;
5121;SDS011;2563;52.242;7.956;2023-04-24T00:41:21;4.47;;;1.40;;
5121;SDS011;2563;52.242;7.956;2023-04-24T00:43:47;2.93;;;1.60;;
5121;SDS011;2563;52.242;7.956;2023-04-24T00:46:13;2.97;;;1.53;;
5121;SDS011;2563;52.242;7.956;2023-04-24T00:48:39;5.40;;;1.77;;
5121;SDS011;2563;52.242;7.956;2023-04-24T00:51:05;3.80;;;1.40;;
5121;SDS011;2563;52.242;7.956;2023-04-24T00:53:30;2.33;;;1.40;;
5121;SDS011;2563;52.242;7.956;2023-04-24T00:55:56;2.33;;;1.30;;
5121;SDS011;2563;52.242;7.956;2023-04-24T00:58:22;4.50;;;1.63;;
5121;SDS011;2563;52.242;7.956;2023-04-24T01:00:48;10.77;;;1.47;;
5121;SDS011;2563;52.242;7.956;2023-04-24T01:03:18;3.33;;;1.43;;
5121;SDS011;2563;52.242;7.956;2023-04-24T01:05:45;2.10;;;1.13;;
5121;SDS011;2563;52.242;7.956;2023-04-24T01:08:10;2.87;;;1.30;;
5121;SDS011;2563;52.242;7.956;2023-04-24T01:10:36;3.77;;;1.57;;
5121;SDS011;2563;52.242;7.956;2023-04-24T01:13:04;2.00;;;0.93;;
5121;SDS011;2563;52.242;7.956;2023-04-24T01:15:30;1.90;;;1.17;;
5121;SDS011;2563;52.242;7.956;2023-04-24T01:17:55;2.33;;;1.17;;
5121;SDS011;2563;52.242;7.956;2023-04-24T01:20:21;2.33;;;1.10;;
5121;SDS011;2563;52.242;7.956;2023-04-24T01:22:49;4.97;;;2.30;;
5121;SDS011;2563;52.242;7.956;2023-04-24T01:25:14;7.10;;;1.07;;
5121;SDS011;2563;52.242;7.956;2023-04-24T01:27:40;3.30;;;1.20;;
5121;SDS011;2563;52.242;7.956;2023-04-24T01:30:06;2.00;;;1.10;;
5121;SDS011;2563;52.242;7.956;2023-04-24T01:32:32;4.70;;;1.60;;
5121;SDS011;2563;52.242;7.956;2023-04-24T01:34:58;2.87;;;1.23;;
5121;SDS011;2563;52.242;7.956;2023-04-24T01:37:24;2.13;;;1.07;;
5121;SDS011;2563;52.242;7.956;2023-04-24T01:39:49;2.20;;;1.20;;
5121;SDS011;2563;52.242;7.956;2023-04-24T01:42:15;2.40;;;1.20;;
5121;SDS011;2563;52.242;7.956;2023-04-24T01:44:41;2.83;;;1.13;;
5121;SDS011;2563;52.242;7.956;2023-04-24T01:47:06;2.10;;;1.10;;
5121;SDS011;2563;52.242;7.956;2023-04-24T01:49:32;3.00;;;1.20;;
5121;SDS011;2563;52.242;7.956;2023-04-24T01:51:57;2.27;;;1.00;;
5121;SDS011;2563;52.242;7.956;2023-04-24T01:54:23;2.50;;;1.33;;
5121;SDS011;2563;52.242;7.956;2023-04-24T01:56:48;2.37;;;1.07;;
5121;SDS011;2563;52.242;7.956;2023-04-24T01:59:13;2.07;;;1.10;;
5121;SDS011;2563;52.242;7.956;2023-04-24T02:01:42;1.67;;;1.00;;
5121;SDS011;2563;52.242;7.956;2023-04-24T02:04:07;3.10;;;1.60;;
5121;SDS011;2563;52.242;7.956;2023-04-24T02:06:33;2.40;;;1.40;;
5121;SDS011;2563;52.242;7.956;2023-04-24T02:08:59;3.07;;;1.13;;
5121;SDS011;2563;52.242;7.956;2023-04-24T02:11:25;2.13;;;0.97;;
5121;SDS011;2563;52.242;7.956;2023-04-24T02:13:51;2.50;;;1.10;;
5121;SDS011;2563;52.242;7.956;2023-04-24T02:16:17;4.80;;;1.40;;
5121;SDS011;2563;52.242;7.956;2023-04-24T02:18:42;2.73;;;1.30;;
5121;SDS011;2563;52.242;7.956;2023-04-24T02:21:08;2.53;;;1.07;;
5121;SDS011;2563;52.242;7.956;2023-04-24T02:23:33;3.53;;;1.63;;
5121;SDS011;2563;52.242;7.956;2023-04-24T02:25:59;1.97;;;1.07;;
5121;SDS011;2563;52.242;7.956;2023-04-24T02:28:24;2.07;;;0.90;;
5121;SDS011;2563;52.242;7.956;2023-04-24T02:30:50;2.97;;;1.30;;
5121;SDS011;2563;52.242;7.956;2023-04-24T02:33:15;3.57;;;1.30;;
5121;SDS011;2563;52.242;7.956;2023-04-24T02:35:41;2.30;;;1.10;;
5121;SDS011;2563;52.242;7.956;2023-04-24T02:38:06;3.30;;;1.57;;
5121;SDS011;2563;52.242;7.956;2023-04-24T02:40:32;2.80;;;1.10;;
5121;SDS011;2563;52.242;7.956;2023-04-24T02:42:57;2.90;;;1.20;;
5121;SDS011;2563;52.242;7.956;2023-04-24T02:45:22;2.87;;;1.57;;
5121;SDS011;2563;52.242;7.956;2023-04-24T02:47:48;2.40;;;1.30;;
5121;SDS011;2563;52.242;7.956;2023-04-24T02:50:13;2.27;;;1.33;;
5121;SDS011;2563;52.242;7.956;2023-04-24T02:52:39;3.40;;;1.17;;
5121;SDS011;2563;52.242;7.956;2023-04-24T02:55:04;2.57;;;1.17;;
5121;SDS011;2563;52.242;7.956;2023-04-24T02:57:30;2.77;;;1.30;;
5121;SDS011;2563;52.242;7.956;2023-04-24T02:59:55;3.70;;;1.90;;
5121;SDS011;2563;52.242;7.956;2023-04-24T03:02:20;3.60;;;1.53;;
5121;SDS011;2563;52.242;7.956;2023-04-24T03:04:46;3.27;;;1.63;;
5121;SDS011;2563;52.242;7.956;2023-04-24T03:07:12;3.50;;;1.80;;
5121;SDS011;2563;52.242;7.956;2023-04-24T03:09:39;7.83;;;2.70;;
5121;SDS011;2563;52.242;7.956;2023-04-24T03:12:05;4.10;;;2.27;;
5121;SDS011;2563;52.242;7.956;2023-04-24T03:14:30;4.67;;;2.33;;
5121;SDS011;2563;52.242;7.956;2023-04-24T03:16:56;4.50;;;2.67;;
5121;SDS011;2563;52.242;7.956;2023-04-24T03:19:21;4.30;;;2.57;;
5121;SDS011;2563;52.242;7.956;2023-04-24T03:21:47;5.73;;;3.00;;
5121;SDS011;2563;52.242;7.956;2023-04-24T03:24:13;3.93;;;2.30;;
5121;SDS011;2563;52.242;7.956;2023-04-24T03:26:38;5.03;;;2.10;;
5121;SDS011;2563;52.242;7.956;2023-04-24T03:29:03;4.93;;;2.30;;
5121;SDS011;2563;52.242;7.956;2023-04-24T03:31:29;3.57;;;2.20;;
5121;SDS011;2563;52.242;7.956;2023-04-24T03:33:54;11.03;;;2.50;;
5121;SDS011;2563;52.242;7.956;2023-04-24T03:36:19;4.20;;;2.20;;
5121;SDS011;2563;52.242;7.956;2023-04-24T03:38:45;5.07;;;2.60;;
5121;SDS011;2563;52.242;7.956;2023-04-24T03:41:10;3.87;;;2.60;;
5121;SDS011;2563;52.242;7.956;2023-04-24T03:43:36;4.50;;;2.67;;
5121;SDS011;2563;52.242;7.956;2023-04-24T03:46:02;5.07;;;2.90;;
5121;SDS011;2563;52.242;7.956;2023-04-24T03:48:28;5.60;;;3.40;;
5121;SDS011;2563;52.242;7.956;2023-04-24T03:50:53;5.50;;;3.00;;
5121;SDS011;2563;52.242;7.956;2023-04-24T03:53:19;5.50;;;3.20;;
5121;SDS011;2563;52.242;7.956;2023-04-24T03:55:44;5.23;;;2.90;;
5121;SDS011;2563;52.242;7.956;2023-04-24T03:58:10;5.40;;;3.30;;
5121;SDS011;2563;52.242;7.956;2023-04-24T04:00:36;10.60;;;5.00;;
5121;SDS011;2563;52.242;7.956;2023-04-24T04:03:02;9.77;;;4.90;;
5121;SDS011;2563;52.242;7.956;2023-04-24T04:05:28;10.50;;;5.67;;
5121;SDS011;2563;52.242;7.956;2023-04-24T04:07:54;9.90;;;5.57;;
5121;SDS011;2563;52.242;7.956;2023-04-24T04:10:19;8.67;;;5.33;;
5121;SDS011;2563;52.242;7.956;2023-04-24T04:12:45;9.00;;;5.50;;
5121;SDS011;2563;52.242;7.956;2023-04-24T04:15:10;11.90;;;6.27;;
5121;SDS011;2563;52.242;7.956;2023-04-24T04:17:35;10.47;;;6.20;;
5121;SDS011;2563;52.242;7.956;2023-04-24T04:20:02;11.80;;;6.10;;
5121;SDS011;2563;52.242;7.956;2023-04-24T04:22:32;11.00;;;5.87;;
5121;SDS011;2563;52.242;7.956;2023-04-24T04:24:57;12.53;;;5.67;;
5121;SDS011;2563;52.242;7.956;2023-04-24T04:27:22;10.13;;;6.03;;
5121;SDS011;2563;52.242;7.956;2023-04-24T04:29:48;13.23;;;5.70;;
5121;SDS011;2563;52.242;7.956;2023-04-24T04:32:13;12.87;;;7.30;;
5121;SDS011;2563;52.242;7.956;2023-04-24T04:34:40;12.40;;;6.63;;
5121;SDS011;2563;52.242;7.956;2023-04-24T04:37:05;14.07;;;6.97;;
5121;SDS011;2563;52.242;7.956;2023-04-24T04:39:31;13.93;;;7.27;;
5121;SDS011;2563;52.242;7.956;2023-04-24T04:41:56;18.03;;;6.77;;
5121;SDS011;2563;52.242;7.956;2023-04-24T04:44:21;13.93;;;7.97;;
5121;SDS011;2563;52.242;7.956;2023-04-24T04:46:48;12.50;;;7.03;;
5121;SDS011;2563;52.242;7.956;2023-04-24T04:49:14;15.33;;;7.37;;
5121;SDS011;2563;52.242;7.956;2023-04-24T04:51:41;11.90;;;6.93;;
5121;SDS011;2563;52.242;7.956;2023-04-24T04:54:07;15.10;;;8.07;;
5121;SDS011;2563;52.242;7.956;2023-04-24T04:56:32;14.13;;;7.93;;
5121;SDS011;2563;52.242;7.956;2023-04-24T04:58:58;13.63;;;7.10;;
5121;SDS011;2563;52.242;7.956;2023-04-24T05:01:24;12.83;;;7.30;;
5121;SDS011;2563;52.242;7.956;2023-04-24T05:03:52;17.00;;;8.43;;
5121;SDS011;2563;52.242;7.956;2023-04-24T05:06:18;12.43;;;7.00;;
5121;SDS011;2563;52.242;7.956;2023-04-24T05:08:43;15.27;;;8.57;;
5121;SDS011;2563;52.242;7.956;2023-04-24T05:11:09;14.47;;;8.30;;
5121;SDS011;2563;52.242;7.956;2023-04-24T05:13:34;15.50;;;8.00;;
5121;SDS011;2563;52.242;7.956;2023-04-24T05:16:00;13.40;;;7.90;;
5121;SDS011;2563;52.242;7.956;2023-04-24T05:18:25;15.47;;;8.13;;
5121;SDS011;2563;52.242;7.956;2023-04-24T05:20:51;14.87;;;8.47;;
5121;SDS011;2563;52.242;7.956;2023-04-24T05:23:16;16.80;;;8.57;;
5121;SDS011;2563;52.242;7.956;2023-04-24T05:25:41;13.40;;;7.23;;
5121;SDS011;2563;52.242;7.956;2023-04-24T05:28:07;16.00;;;8.87;;
5121;SDS011;2563;52.242;7.956;2023-04-24T05:30:33;22.13;;;9.00;;
5121;SDS011;2563;52.242;7.956;2023-04-24T05:32:58;17.90;;;9.40;;
5121;SDS011;2563;52.242;7.956;2023-04-24T05:35:24;16.20;;;8.93;;
5121;SDS011;2563;52.242;7.956;2023-04-24T05:37:49;18.80;;;9.70;;
5121;SDS011;2563;52.242;7.956;2023-04-24T05:40:15;17.20;;;8.27;;
5121;SDS011;2563;52.242;7.956;2023-04-24T05:42:40;17.60;;;9.47;;
5121;SDS011;2563;52.242;7.956;2023-04-24T05:45:06;19.63;;;9.70;;
5121;SDS011;2563;52.242;7.956;2023-04-24T05:47:32;17.80;;;9.43;;
5121;SDS011;2563;52.242;7.956;2023-04-24T05:49:57;15.87;;;9.60;;
5121;SDS011;2563;52.242;7.956;2023-04-24T05:52:22;24.30;;;11.50;;
5121;SDS011;2563;52.242;7.956;2023-04-24T05:54:48;22.50;;;10.27;;
5121;SDS011;2563;52.242;7.956;2023-04-24T05:57:13;20.37;;;10.77;;
5121;SDS011;2563;52.242;7.956;2023-04-24T05:59:39;33.00;;;11.30;;
5121;SDS011;2563;52.242;7.956;2023-04-24T06:02:05;20.27;;;11.50;;
5121;SDS011;2563;52.242;7.956;2023-04-24T06:04:31;17.63;;;9.80;;
5121;SDS011;2563;52.242;7.956;2023-04-24T06:06:57;19.50;;;11.20;;
5121;SDS011;2563;52.242;7.956;2023-04-24T06:09:22;19.67;;;11.63;;
5121;SDS011;2563;52.242;7.956;2023-04-24T06:11:48;26.50;;;12.10;;
5121;SDS011;2563;52.242;7.956;2023-04-24T06:14:14;24.20;;;11.73;;
5121;SDS011;2563;52.242;7.956;2023-04-24T06:16:41;22.57;;;11.73;;
5121;SDS011;2563;52.242;7.956;2023-04-24T06:19:07;24.10;;;12.10;;
5121;SDS011;2563;52.242;7.956;2023-04-24T06:21:32;20.10;;;11.17;;
5121;SDS011;2563;52.242;7.956;2023-04-24T06:23:58;28.80;;;11.53;;
5121;SDS011;2563;52.242;7.956;2023-04-24T06:26:23;21.83;;;11.30;;
5121;SDS011;2563;52.242;7.956;2023-04-24T06:28:50;18.47;;;10.67;;
5121;SDS011;2563;52.242;7.956;2023-04-24T06:31:16;23.97;;;11.53;;
5121;SDS011;2563;52.242;7.956;2023-04-24T06:33:42;18.57;;;11.37;;
5121;SDS011;2563;52.242;7.956;2023-04-24T06:36:07;20.77;;;11.63;;
5121;SDS011;2563;52.242;7.956;2023-04-24T06:38:33;22.40;;;11.30;;
5121;SDS011;2563;52.242;7.956;2023-04-24T06:40:59;20.60;;;10.47;;
5121;SDS011;2563;52.242;7.956;2023-04-24T06:43:24;18.77;;;10.53;;
5121;SDS011;2563;52.242;7.956;2023-04-24T06:45:50;20.97;;;12.03;;
5121;SDS011;2563;52.242;7.956;2023-04-24T06:48:15;22.37;;;10.43;;
5121;SDS011;2563;52.242;7.956;2023-04-24T06:50:40;23.50;;;11.77;;
5121;SDS011;2563;52.242;7.956;2023-04-24T06:53:06;21.57;;;11.83;;
5121;SDS011;2563;52.242;7.956;2023-04-24T06:55:31;23.43;;;12.10;;
5121;SDS011;2563;52.242;7.956;2023-04-24T06:57:57;22.00;;;11.57;;
5121;SDS011;2563;52.242;7.956;2023-04-24T07:00:22;22.60;;;11.60;;
5121;SDS011;2563;52.242;7.956;2023-04-24T07:02:49;21.13;;;10.87;;
5121;SDS011;2563;52.242;7.956;2023-04-24T07:05:14;22.27;;;11.50;;
5121;SDS011;2563;52.242;7.956;2023-04-24T07:07:40;16.63;;;9.60;;
5121;SDS011;2563;52.242;7.956;2023-04-24T07:10:07;21.17;;;11.10;;
5121;SDS011;2563;52.242;7.956;2023-04-24T07:12:33;21.67;;;10.60;;
5121;SDS011;2563;52.242;7.956;2023-04-24T07:14:59;21.27;;;10.50;;
5121;SDS011;2563;52.242;7.956;2023-04-24T07:17:25;19.50;;;10.30;;
5121;SDS011;2563;52.242;7.956;2023-04-24T07:19:50;19.20;;;10.40;;
5121;SDS011;2563;52.242;7.956;2023-04-24T07:22:16;18.33;;;10.27;;
5121;SDS011;2563;52.242;7.956;2023-04-24T07:24:45;21.93;;;10.80;;
5121;SDS011;2563;52.242;7.956;2023-04-24T07:27:10;21.20;;;10.37;;
5121;SDS011;2563;52.242;7.956;2023-04-24T07:29:36;19.00;;;11.03;;
5121;SDS011;2563;52.242;7.956;2023-04-24T07:32:02;21.47;;;11.30;;
5121;SDS011;2563;52.242;7.956;2023-04-24T07:34:28;18.00;;;11.00;;
5121;SDS011;2563;52.242;7.956;2023-04-24T07:36:53;22.23;;;10.47;;
5121;SDS011;2563;52.242;7.956;2023-04-24T07:39:18;19.27;;;10.97;;
5121;SDS011;2563;52.242;7.956;2023-04-24T07:41:44;21.20;;;10.80;;
5121;SDS011;2563;52.242;7.956;2023-04-24T07:44:09;19.87;;;10.80;;
5121;SDS011;2563;52.242;7.956;2023-04-24T07:46:35;19.30;;;10.87;;
5121;SDS011;2563;52.242;7.956;2023-04-24T07:49:00;17.10;;;10.47;;
5121;SDS011;2563;52.242;7.956;2023-04-24T07:51:26;21.80;;;10.70;;
5121;SDS011;2563;52.242;7.956;2023-04-24T07:53:55;19.10;;;9.97;;
5121;SDS011;2563;52.242;7.956;2023-04-24T07:56:21;15.50;;;10.00;;
5121;SDS011;2563;52.242;7.956;2023-04-24T07:58:46;18.50;;;10.33;;
5121;SDS011;2563;52.242;7.956;2023-04-24T08:01:11;16.47;;;9.90;;
5121;SDS011;2563;52.242;7.956;2023-04-24T08:03:37;16.60;;;9.50;;
5121;SDS011;2563;52.242;7.956;2023-04-24T08:06:02;22.83;;;9.10;;
5121;SDS011;2563;52.242;7.956;2023-04-24T08:08:28;18.20;;;10.43;;
5121;SDS011;2563;52.242;7.956;2023-04-24T08:10:53;15.07;;;8.87;;
5121;SDS011;2563;52.242;7.956;2023-04-24T08:13:19;15.20;;;9.30;;
5121;SDS011;2563;52.242;7.956;2023-04-24T08:15:45;15.93;;;9.40;;
5121;SDS011;2563;52.242;7.956;2023-04-24T08:18:10;17.73;;;9.50;;
5121;SDS011;2563;52.242;7.956;2023-04-24T08:20:37;15.73;;;9.03;;
5121;SDS011;2563;52.242;7.956;2023-04-24T08:23:03;15.20;;;8.67;;
5121;SDS011;2563;52.242;7.956;2023-04-24T08:25:28;12.63;;;8.00;;
5121;SDS011;2563;52.242;7.956;2023-04-24T08:27:53;13.80;;;8.03;;
5121;SDS011;2563;52.242;7.956;2023-04-24T08:30:19;15.07;;;8.70;;
5121;SDS011;2563;52.242;7.956;2023-04-24T08:32:45;16.60;;;9.10;;
5121;SDS011;2563;52.242;7.956;2023-04-24T08:35:11;13.07;;;8.00;;
5121;SDS011;2563;52.242;7.956;2023-04-24T08:37:36;14.23;;;8.80;;
5121;SDS011;2563;52.242;7.956;2023-04-24T08:40:03;12.20;;;7.60;;
5121;SDS011;2563;52.242;7.956;2023-04-24T08:42:34;12.60;;;8.20;;
5121;SDS011;2563;52.242;7.956;2023-04-24T08:45:02;13.53;;;7.93;;
5121;SDS011;2563;52.242;7.956;2023-04-24T08:47:28;16.50;;;8.57;;
5121;SDS011;2563;52.242;7.956;2023-04-24T08:49:54;14.53;;;7.70;;
5121;SDS011;2563;52.242;7.956;2023-04-24T08:52:20;11.00;;;6.97;;
5121;SDS011;2563;52.242;7.956;2023-04-24T08:54:47;11.90;;;7.70;;
5121;SDS011;2563;52.242;7.956;2023-04-24T08:57:13;12.00;;;7.10;;
5121;SDS011;2563;52.242;7.956;2023-04-24T08:59:39;13.73;;;6.60;;
5121;SDS011;2563;52.242;7.956;2023-04-24T09:02:05;11.03;;;6.13;;
5121;SDS011;2563;52.242;7.956;2023-04-24T09:04:34;8.93;;;6.13;;
5121;SDS011;2563;52.242;7.956;2023-04-24T09:07:01;12.63;;;6.70;;
5121;SDS011;2563;52.242;7.956;2023-04-24T09:09:27;9.00;;;6.00;;
5121;SDS011;2563;52.242;7.956;2023-04-24T09:11:56;10.43;;;6.40;;
5121;SDS011;2563;52.242;7.956;2023-04-24T09:14:22;11.07;;;6.43;;
5121;SDS011;2563;52.242;7.956;2023-04-24T09:16:48;9.60;;;5.73;;
5121;SDS011;2563;52.242;7.956;2023-04-24T09:19:15;9.37;;;5.73;;
5121;SDS011;2563;52.242;7.956;2023-04-24T09:21:40;9.53;;;6.10;;
5121;SDS011;2563;52.242;7.956;2023-04-24T09:24:08;9.17;;;6.07;;
5121;SDS011;2563;52.242;7.956;2023-04-24T09:26:43;9.83;;;6.60;;
5121;SDS011;2563;52.242;7.956;2023-04-24T09:29:13;10.10;;;6.20;;
5121;SDS011;2563;52.242;7.956;2023-04-24T09:31:40;10.13;;;6.50;;
5121;SDS011;2563;52.242;7.956;2023-04-24T09:34:06;9.00;;;5.70;;
5121;SDS011;2563;52.242;7.956;2023-04-24T09:36:32;10.83;;;6.27;;
5121;SDS011;2563;52.242;7.956;2023-04-24T09:39:06;12.83;;;7.20;;
5121;SDS011;2563;52.242;7.956;2023-04-24T09:41:33;9.60;;;5.80;;
5121;SDS011;2563;52.242;7.956;2023-04-24T09:44:10;10.60;;;7.13;;
5121;SDS011;2563;52.242;7.956;2023-04-24T09:46:57;9.93;;;6.10;;
5121;SDS011;2563;52.242;7.956;2023-04-24T09:51:49;8.73;;;5.80;;
5121;SDS011;2563;52.242;7.956;2023-04-24T09:54:15;9.97;;;6.20;;
5121;SDS011;2563;52.242;7.956;2023-04-24T09:56:46;9.80;;;6.10;;
5121;SDS011;2563;52.242;7.956;2023-04-24T09:59:14;8.60;;;5.70;;
5121;SDS011;2563;52.242;7.956;2023-04-24T10:01:44;10.13;;;6.70;;
5121;SDS011;2563;52.242;7.956;2023-04-24T10:04:17;11.40;;;6.30;;
5121;SDS011;2563;52.242;7.956;2023-04-24T10:06:43;9.37;;;5.63;;
5121;SDS011;2563;52.242;7.956;2023-04-24T10:09:09;7.20;;;5.13;;
5121;SDS011;2563;52.242;7.956;2023-04-24T10:11:36;7.50;;;4.53;;
5121;SDS011;2563;52.242;7.956;2023-04-24T10:14:02;7.83;;;4.33;;
5121;SDS011;2563;52.242;7.956;2023-04-24T10:16:28;7.00;;;4.23;;
5121;SDS011;2563;52.242;7.956;2023-04-24T10:18:55;5.53;;;3.83;;
5121;SDS011;2563;52.242;7.956;2023-04-24T10:21:24;7.03;;;3.80;;
5121;SDS011;2563;52.242;7.956;2023-04-24T10:23:51;4.77;;;2.47;;
5121;SDS011;2563;52.242;7.956;2023-04-24T10:26:17;5.10;;;3.03;;
5121;SDS011;2563;52.242;7.956;2023-04-24T10:28:47;3.77;;;2.30;;
5121;SDS011;2563;52.242;7.956;2023-04-24T10:31:13;5.03;;;2.70;;
5121;SDS011;2563;52.242;7.956;2023-04-24T10:33:42;4.33;;;2.20;;
5121;SDS011;2563;52.242;7.956;2023-04-24T10:36:11;3.30;;;1.70;;
5121;SDS011;2563;52.242;7.956;2023-04-24T10:38:41;3.90;;;1.87;;
5121;SDS011;2563;52.242;7.956;2023-04-24T10:41:09;3.47;;;1.73;;
5121;SDS011;2563;52.242;7.956;2023-04-24T10:43:40;4.80;;;3.03;;
5121;SDS011;2563;52.242;7.956;2023-04-24T10:46:06;2.90;;;1.67;;
5121;SDS011;2563;52.242;7.956;2023-04-24T10:48:33;6.20;;;2.43;;
5121;SDS011;2563;52.242;7.956;2023-04-24T10:50:59;4.20;;;1.23;;
5121;SDS011;2563;52.242;7.956;2023-04-24T10:53:28;4.40;;;1.60;;
5121;SDS011;2563;52.242;7.956;2023-04-24T10:56:08;2.87;;;1.23;;
5121;SDS011;2563;52.242;7.956;2023-04-24T11:01:05;3.60;;;1.20;;
5121;SDS011;2563;52.242;7.956;2023-04-24T11:03:32;3.73;;;1.60;;
5121;SDS011;2563;52.242;7.956;2023-04-24T11:06:00;4.40;;;1.40;;
5121;SDS011;2563;52.242;7.956;2023-04-24T11:10:54;6.23;;;2.00;;
5121;SDS011;2563;52.242;7.956;2023-04-24T11:13:24;3.17;;;1.30;;
5121;SDS011;2563;52.242;7.956;2023-04-24T11:19:38;3.63;;;1.80;;
5121;SDS011;2563;52.242;7.956;2023-04-24T11:32:30;7.40;;;3.17;;
5121;SDS011;2563;52.242;7.956;2023-04-24T11:35:05;6.90;;;3.17;;
5121;SDS011;2563;52.242;7.956;2023-04-24T11:37:38;7.20;;;3.50;;
5121;SDS011;2563;52.242;7.956;2023-04-24T11:40:06;10.20;;;4.20;;
5121;SDS011;2563;52.242;7.956;2023-04-24T11:42:33;14.37;;;4.93;;
5121;SDS011;2563;52.242;7.956;2023-04-24T11:45:00;7.00;;;4.10;;
5121;SDS011;2563;52.242;7.956;2023-04-24T11:47:30;8.17;;;4.10;;
5121;SDS011;2563;52.242;7.956;2023-04-24T11:49:58;9.57;;;3.93;;
5121;SDS011;2563;52.242;7.956;2023-04-24T11:52:25;7.47;;;3.97;;
5121;SDS011;2563;52.242;7.956;2023-04-24T11:54:51;8.13;;;4.07;;
5121;SDS011;2563;52.242;7.956;2023-04-24T11:57:18;10.87;;;3.73;;
5121;SDS011;2563;52.242;7.956;2023-04-24T11:59:45;11.33;;;4.43;;
5121;SDS011;2563;52.242;7.956;2023-04-24T12:02:19;9.57;;;3.80;;
5121;SDS011;2563;52.242;7.956;2023-04-24T12:04:55;10.33;;;4.30;;
5121;SDS011;2563;52.242;7.956;2023-04-24T12:07:21;9.90;;;4.23;;
5121;SDS011;2563;52.242;7.956;2023-04-24T12:09:50;9.33;;;4.00;;
5121;SDS011;2563;52.242;7.956;2023-04-24T12:12:22;8.23;;;3.87;;
5121;SDS011;2563;52.242;7.956;2023-04-24T12:14:52;8.93;;;3.97;;
5121;SDS011;2563;52.242;7.956;2023-04-24T12:17:29;11.90;;;4.00;;
5121;SDS011;2563;52.242;7.956;2023-04-24T12:20:03;7.23;;;3.83;;
5121;SDS011;2563;52.242;7.956;2023-04-24T12:25:28;11.70;;;4.80;;
5121;SDS011;2563;52.242;7.956;2023-04-24T12:30:38;10.20;;;4.30;;
5121;SDS011;2563;52.242;7.956;2023-04-24T12:33:06;11.00;;;4.20;;
5121;SDS011;2563;52.242;7.956;2023-04-24T12:35:32;7.07;;;2.97;;
5121;SDS011;2563;52.242;7.956;2023-04-24T12:38:11;13.13;;;2.90;;
5121;SDS011;2563;52.242;7.956;2023-04-24T12:40:39;9.63;;;3.30;;
5121;SDS011;2563;52.242;7.956;2023-04-24T12:43:15;7.40;;;3.33;;
5121;SDS011;2563;52.242;7.956;2023-04-24T12:45:42;9.63;;;3.13;;
5121;SDS011;2563;52.242;7.956;2023-04-24T12:48:09;6.93;;;2.50;;
5121;SDS011;2563;52.242;7.956;2023-04-24T12:50:34;8.30;;;2.87;;
5121;SDS011;2563;52.242;7.956;2023-04-24T12:52:59;9.20;;;3.10;;
5121;SDS011;2563;52.242;7.956;2023-04-24T12:55:25;6.87;;;2.80;;
5121;SDS011;2563;52.242;7.956;2023-04-24T12:57:50;8.40;;;3.10;;
5121;SDS011;2563;52.242;7.956;2023-04-24T13:00:16;9.67;;;2.83;;
5121;SDS011;2563;52.242;7.956;2023-04-24T13:02:42;10.53;;;4.23;;
5121;SDS011;2563;52.242;7.956;2023-04-24T13:05:08;7.60;;;2.63;;
5121;SDS011;2563;52.242;7.956;2023-04-24T13:07:33;7.47;;;2.80;;
5121;SDS011;2563;52.242;7.956;2023-04-24T13:10:00;11.87;;;2.53;;
5121;SDS011;2563;52.242;7.956;2023-04-24T13:12:25;4.60;;;2.10;;
5121;SDS011;2563;52.242;7.956;2023-04-24T13:14:51;7.03;;;2.50;;
5121;SDS011;2563;52.242;7.956;2023-04-24T13:17:17;7.20;;;2.87;;
5121;SDS011;2563;52.242;7.956;2023-04-24T13:19:43;10.20;;;2.93;;
5121;SDS011;2563;52.242;7.956;2023-04-24T13:22:10;8.90;;;2.80;;
5121;SDS011;2563;52.242;7.956;2023-04-24T13:24:36;13.47;;;3.77;;
5121;SDS011;2563;52.242;7.956;2023-04-24T13:27:03;12.80;;;3.60;;
5121;SDS011;2563;52.242;7.956;2023-04-24T13:29:28;10.10;;;3.40;;
5121;SDS011;2563;52.242;7.956;2023-04-24T13:31:54;6.97;;;2.90;;
5121;SDS011;2563;52.242;7.956;2023-04-24T13:34:20;11.33;;;3.20;;
5121;SDS011;2563;52.242;7.956;2023-04-24T13:36:46;17.73;;;3.57;;
5121;SDS011;2563;52.242;7.956;2023-04-24T13:39:12;7.30;;;2.43;;
5121;SDS011;2563;52.242;7.956;2023-04-24T13:41:37;10.70;;;3.60;;
5121;SDS011;2563;52.242;7.956;2023-04-24T13:44:03;6.83;;;2.80;;
5121;SDS011;2563;52.242;7.956;2023-04-24T13:46:29;9.50;;;3.13;;
5121;SDS011;2563;52.242;7.956;2023-04-24T13:48:55;7.03;;;2.80;;
5121;SDS011;2563;52.242;7.956;2023-04-24T13:51:22;10.30;;;3.57;;
5121;SDS011;2563;52.242;7.956;2023-04-24T13:53:48;8.30;;;3.33;;
5121;SDS011;2563;52.242;7.956;2023-04-24T13:56:13;5.30;;;1.87;;
5121;SDS011;2563;52.242;7.956;2023-04-24T13:58:39;6.87;;;2.10;;
5121;SDS011;2563;52.242;7.956;2023-04-24T14:01:04;8.00;;;2.37;;
5121;SDS011;2563;52.242;7.956;2023-04-24T14:03:30;7.50;;;2.50;;
5121;SDS011;2563;52.242;7.956;2023-04-24T14:05:55;8.73;;;3.07;;
5121;SDS011;2563;52.242;7.956;2023-04-24T14:08:21;5.77;;;2.33;;
5121;SDS011;2563;52.242;7.956;2023-04-24T14:10:46;6.17;;;2.63;;
5121;SDS011;2563;52.242;7.956;2023-04-24T14:13:11;5.60;;;2.60;;
5121;SDS011;2563;52.242;7.956;2023-04-24T14:15:37;6.07;;;2.30;;
5121;SDS011;2563;52.242;7.956;2023-04-24T14:18:03;7.50;;;2.80;;
5121;SDS011;2563;52.242;7.956;2023-04-24T14:20:28;6.93;;;2.10;;
5121;SDS011;2563;52.242;7.956;2023-04-24T14:22:54;15.50;;;2.80;;
5121;SDS011;2563;52.242;7.956;2023-04-24T14:25:19;8.70;;;2.70;;
5121;SDS011;2563;52.242;7.956;2023-04-24T14:27:45;10.27;;;2.73;;
5121;SDS011;2563;52.242;7.956;2023-04-24T14:30:12;10.67;;;2.40;;
5121;SDS011;2563;52.242;7.956;2023-04-24T14:32:38;6.10;;;2.40;;
5121;SDS011;2563;52.242;7.956;2023-04-24T14:35:04;7.70;;;2.27;;
5121;SDS011;2563;52.242;7.956;2023-04-24T14:37:30;7.03;;;3.17;;
5121;SDS011;2563;52.242;7.956;2023-04-24T14:39:55;5.50;;;2.07;;
5121;SDS011;2563;52.242;7.956;2023-04-24T14:42:21;6.37;;;2.30;;
5121;SDS011;2563;52.242;7.956;2023-04-24T14:44:46;10.77;;;2.73;;
5121;SDS011;2563;52.242;7.956;2023-04-24T14:47:12;11.70;;;2.70;;
5121;SDS011;2563;52.242;7.956;2023-04-24T14:49:37;7.13;;;2.37;;
5121;SDS011;2563;52.242;7.956;2023-04-24T14:52:03;5.60;;;2.70;;
5121;SDS011;2563;52.242;7.956;2023-04-24T14:54:28;10.93;;;2.70;;
5121;SDS011;2563;52.242;7.956;2023-04-24T14:56:54;5.50;;;2.50;;
5121;SDS011;2563;52.242;7.956;2023-04-24T14:59:22;5.13;;;1.83;;
5121;SDS011;2563;52.242;7.956;2023-04-24T15:01:47;4.50;;;2.47;;
5121;SDS011;2563;52.242;7.956;2023-04-24T15:04:12;4.00;;;1.80;;
5121;SDS011;2563;52.242;7.956;2023-04-24T15:06:38;6.17;;;1.97;;
5121;SDS011;2563;52.242;7.956;2023-04-24T15:09:03;4.60;;;2.40;;
5121;SDS011;2563;52.242;7.956;2023-04-24T15:11:28;7.13;;;2.13;;
5121;SDS011;2563;52.242;7.956;2023-04-24T15:13:54;8.00;;;2.63;;
5121;SDS011;2563;52.242;7.956;2023-04-24T15:16:21;6.80;;;2.33;;
5121;SDS011;2563;52.242;7.956;2023-04-24T15:18:46;7.80;;;2.43;;
5121;SDS011;2563;52.242;7.956;2023-04-24T15:21:11;6.50;;;2.20;;
5121;SDS011;2563;52.242;7.956;2023-04-24T15:23:38;6.30;;;1.70;;
5121;SDS011;2563;52.242;7.956;2023-04-24T15:26:03;4.03;;;1.87;;
5121;SDS011;2563;52.242;7.956;2023-04-24T15:28:28;5.07;;;2.03;;
5121;SDS011;2563;52.242;7.956;2023-04-24T15:30:54;4.43;;;1.83;;